createdAt,value
2017-09-26T00:01:32.722Z,10.83
2017-09-26T00:04:00.899Z,11.20
2017-09-26T00:06:29.092Z,11.47
2017-09-26T00:08:57.247Z,10.63
2017-09-26T00:11:25.416Z,12.50
2017-09-26T00:13:53.577Z,10.07
2017-09-26T00:16:21.780Z,10.73
2017-09-26T00:18:49.994Z,10.77
2017-09-26T00:21:18.165Z,10.27
2017-09-26T00:23:46.374Z,10.90
2017-09-26T00:26:15.302Z,10.20
2017-09-26T00:28:43.497Z,11.73
2017-09-26T00:31:11.663Z,11.47
2017-09-26T00:36:20.064Z,11.13
2017-09-26T00:38:48.972Z,12.60
2017-09-26T00:41:17.864Z,10.50
2017-09-26T00:43:46.556Z,10.07
2017-09-26T00:46:14.680Z,11.30
2017-09-26T00:48:42.812Z,11.27
2017-09-26T00:51:10.951Z,10.47
2017-09-26T00:53:39.859Z,10.77
2017-09-26T00:56:07.998Z,10.60
2017-09-26T00:58:36.146Z,10.53
2017-09-26T01:01:14.185Z,10.87
2017-09-26T01:03:43.119Z,10.80
2017-09-26T01:06:11.241Z,11.03
2017-09-26T01:08:40.774Z,11.17
2017-09-26T01:11:09.677Z,10.50
2017-09-26T01:13:37.808Z,12.13
2017-09-26T01:16:05.966Z,11.10
2017-09-26T01:18:34.120Z,12.47
2017-09-26T01:21:02.257Z,12.07
2017-09-26T01:23:31.378Z,11.30
2017-09-26T01:25:59.516Z,13.17
2017-09-26T01:28:27.668Z,11.97
2017-09-26T01:30:56.605Z,11.80
2017-09-26T01:33:24.852Z,12.20
2017-09-26T01:35:53.257Z,11.50
2017-09-26T01:38:21.401Z,12.40
2017-09-26T01:41:02.414Z,11.53
2017-09-26T01:43:30.825Z,11.80
2017-09-26T01:45:58.939Z,11.87
2017-09-26T01:48:27.115Z,11.00
2017-09-26T01:50:55.239Z,11.13
2017-09-26T01:53:23.389Z,10.80
2017-09-26T01:55:51.510Z,10.20
2017-09-26T01:58:32.259Z,11.00
2017-09-26T02:01:01.887Z,11.33
2017-09-26T02:03:30.812Z,11.77
2017-09-26T02:05:58.952Z,11.63
2017-09-26T02:08:27.863Z,11.00
2017-09-26T02:10:56.000Z,11.60
2017-09-26T02:13:24.889Z,11.70
2017-09-26T02:15:53.810Z,10.37
2017-09-26T02:18:21.948Z,11.10
2017-09-26T02:20:50.091Z,11.10
2017-09-26T02:23:18.489Z,10.80
2017-09-26T02:25:46.631Z,11.77
2017-09-26T02:28:14.761Z,11.60
2017-09-26T02:30:43.690Z,10.03
2017-09-26T02:33:11.813Z,11.20
2017-09-26T02:35:40.714Z,11.53
2017-09-26T02:38:09.655Z,11.20
2017-09-26T02:40:38.757Z,9.30
2017-09-26T02:43:08.035Z,9.40
2017-09-26T02:45:36.146Z,11.70
2017-09-26T02:48:04.304Z,11.50
2017-09-26T02:50:32.424Z,10.60
2017-09-26T02:53:00.556Z,11.27
2017-09-26T02:55:28.714Z,10.83
2017-09-26T02:57:56.834Z,10.93
2017-09-26T03:00:25.753Z,9.50
2017-09-26T03:02:53.879Z,9.30
2017-09-26T03:05:22.029Z,10.50
2017-09-26T03:07:50.159Z,9.53
2017-09-26T03:10:19.053Z,8.60
2017-09-26T03:12:47.165Z,7.40
2017-09-26T03:15:15.297Z,8.60
2017-09-26T03:17:43.432Z,10.13
2017-09-26T03:20:11.577Z,9.30
2017-09-26T03:22:39.709Z,9.50
2017-09-26T03:25:07.857Z,9.77
2017-09-26T03:27:36.741Z,10.13
2017-09-26T03:30:04.890Z,9.20
2017-09-26T03:32:33.014Z,7.63
2017-09-26T03:35:01.149Z,6.33
2017-09-26T03:37:29.291Z,7.17
2017-09-26T03:39:57.418Z,6.83
2017-09-26T03:42:26.308Z,7.43
2017-09-26T03:44:55.209Z,7.60
2017-09-26T03:47:24.119Z,8.10
2017-09-26T03:49:52.264Z,8.10
2017-09-26T03:52:21.155Z,9.00
2017-09-26T03:54:50.058Z,10.10
2017-09-26T03:57:18.188Z,9.70
2017-09-26T03:59:46.350Z,11.53
2017-09-26T04:02:14.479Z,10.60
2017-09-26T04:04:42.624Z,11.63
2017-09-26T04:07:11.513Z,6.07
2017-09-26T04:09:40.410Z,6.90
2017-09-26T04:12:09.332Z,7.07
2017-09-26T04:14:37.481Z,7.47
2017-09-26T04:17:05.627Z,7.07
2017-09-26T04:19:33.771Z,7.93
2017-09-26T04:22:01.908Z,7.30
2017-09-26T04:24:30.038Z,7.50
2017-09-26T04:26:58.988Z,9.30
2017-09-26T04:29:27.105Z,8.80
2017-09-26T04:31:55.252Z,8.63
2017-09-26T04:34:23.372Z,8.60
2017-09-26T04:36:52.293Z,10.33
2017-09-26T04:39:20.420Z,9.37
2017-09-26T04:41:49.334Z,10.00
2017-09-26T04:44:18.224Z,9.60
2017-09-26T04:46:46.375Z,10.20
2017-09-26T04:49:15.280Z,9.80
2017-09-26T04:51:43.430Z,8.77
2017-09-26T04:54:11.568Z,8.20
2017-09-26T04:56:39.702Z,7.60
2017-09-26T04:59:07.873Z,5.80
2017-09-26T05:01:36.753Z,4.33
2017-09-26T05:04:05.653Z,4.53
2017-09-26T05:06:34.542Z,5.17
2017-09-26T05:09:03.463Z,4.40
2017-09-26T05:11:31.628Z,5.30
2017-09-26T05:13:59.758Z,3.90
2017-09-26T05:16:27.891Z,5.43
2017-09-26T05:18:57.765Z,4.80
2017-09-26T05:21:25.882Z,4.13
2017-09-26T05:23:54.801Z,3.60
2017-09-26T05:26:22.932Z,4.60
2017-09-26T05:28:51.052Z,5.20
2017-09-26T05:31:19.174Z,6.03
2017-09-26T05:33:48.076Z,6.70
2017-09-26T05:36:16.312Z,5.87
2017-09-26T05:38:45.188Z,5.40
2017-09-26T05:41:13.330Z,5.70
2017-09-26T05:43:41.461Z,5.97
2017-09-26T05:46:09.591Z,6.30
2017-09-26T05:48:37.733Z,8.43
2017-09-26T05:51:05.882Z,8.30
2017-09-26T05:53:34.804Z,9.67
2017-09-26T05:56:02.956Z,15.23
2017-09-26T05:58:31.860Z,16.03
2017-09-26T06:01:00.045Z,15.00
2017-09-26T06:03:28.171Z,11.10
2017-09-26T06:05:56.317Z,9.87
2017-09-26T06:08:25.208Z,9.20
2017-09-26T06:10:53.421Z,10.30
2017-09-26T06:13:21.552Z,10.70
2017-09-26T06:15:49.687Z,11.80
2017-09-26T06:18:17.830Z,11.53
2017-09-26T06:20:46.025Z,12.47
2017-09-26T06:23:14.195Z,10.43
2017-09-26T06:25:43.077Z,10.60
2017-09-26T06:28:11.998Z,10.30
2017-09-26T06:30:40.180Z,10.60
2017-09-26T06:33:08.352Z,12.53
2017-09-26T06:35:36.456Z,11.67
2017-09-26T06:38:06.111Z,12.23
2017-09-26T06:40:34.257Z,14.33
2017-09-26T06:43:02.399Z,15.30
2017-09-26T06:45:30.554Z,14.20
2017-09-26T06:47:58.698Z,14.50
2017-09-26T06:50:26.883Z,14.73
2017-09-26T06:52:55.764Z,14.40
2017-09-26T06:55:23.920Z,17.07
2017-09-26T06:57:52.820Z,17.87
2017-09-26T07:00:22.193Z,20.50
2017-09-26T07:02:50.322Z,20.33
2017-09-26T07:05:18.481Z,20.80
2017-09-26T07:07:46.641Z,20.77
2017-09-26T07:10:15.052Z,22.73
2017-09-26T07:12:43.189Z,21.90
2017-09-26T07:15:12.109Z,26.33
2017-09-26T07:17:40.239Z,23.27
2017-09-26T07:20:08.430Z,24.10
2017-09-26T07:22:37.699Z,27.50
2017-09-26T07:25:05.829Z,23.87
2017-09-26T07:27:34.750Z,26.17
2017-09-26T07:30:03.649Z,26.97
2017-09-26T07:32:31.805Z,26.80
2017-09-26T07:34:59.960Z,23.47
2017-09-26T07:37:28.104Z,29.10
2017-09-26T07:39:57.008Z,26.90
2017-09-26T07:42:25.149Z,25.97
2017-09-26T07:44:54.126Z,28.30
2017-09-26T07:47:22.273Z,27.37
2017-09-26T07:49:50.445Z,25.70
2017-09-26T07:52:18.596Z,26.43
2017-09-26T07:54:46.754Z,24.00
2017-09-26T07:57:14.894Z,26.00
2017-09-26T07:59:43.025Z,25.80
2017-09-26T08:02:11.517Z,27.70
2017-09-26T08:04:39.953Z,25.40
2017-09-26T08:07:09.124Z,27.37
2017-09-26T08:09:37.568Z,26.23
2017-09-26T08:12:06.490Z,24.30
2017-09-26T08:14:34.666Z,27.00
2017-09-26T08:17:03.577Z,24.80
2017-09-26T08:19:32.493Z,26.20
2017-09-26T08:22:00.652Z,29.53
2017-09-26T08:24:28.802Z,27.27
2017-09-26T08:26:57.703Z,25.90
2017-09-26T08:29:26.644Z,29.90
2017-09-26T08:31:54.776Z,30.03
2017-09-26T08:34:22.924Z,26.30
2017-09-26T08:36:51.048Z,26.67
2017-09-26T08:39:19.262Z,28.97
2017-09-26T08:41:47.405Z,24.30
2017-09-26T08:44:15.532Z,26.07
2017-09-26T08:46:43.697Z,26.83
2017-09-26T08:49:11.827Z,27.13
2017-09-26T08:51:40.742Z,26.20
2017-09-26T08:54:08.885Z,24.93
2017-09-26T08:56:38.508Z,23.77
2017-09-26T08:59:07.414Z,24.07
2017-09-26T09:01:36.303Z,25.53
2017-09-26T09:04:05.220Z,24.83
2017-09-26T09:06:33.352Z,26.00
2017-09-26T09:09:02.261Z,26.13
2017-09-26T09:11:30.421Z,25.37
2017-09-26T09:13:58.613Z,27.47
2017-09-26T09:16:26.836Z,28.27
2017-09-26T09:18:54.998Z,29.00
2017-09-26T09:21:23.137Z,28.57
2017-09-26T09:23:52.094Z,30.20
2017-09-26T09:26:20.983Z,29.23
2017-09-26T09:28:49.900Z,30.23
2017-09-26T09:31:18.033Z,29.70
2017-09-26T09:33:46.947Z,28.60
2017-09-26T09:36:15.082Z,28.50
2017-09-26T09:38:43.205Z,30.93
2017-09-26T09:41:11.348Z,29.80
2017-09-26T09:43:40.289Z,30.50
2017-09-26T09:46:08.413Z,26.63
2017-09-26T09:48:37.304Z,28.33
2017-09-26T09:51:06.227Z,28.73
2017-09-26T09:53:34.384Z,27.60
2017-09-26T09:56:02.519Z,27.80
2017-09-26T09:58:30.668Z,30.60
2017-09-26T10:00:59.582Z,28.40
2017-09-26T10:03:27.713Z,31.03
2017-09-26T10:05:55.847Z,26.93
2017-09-26T10:08:24.790Z,26.10
2017-09-26T10:10:52.903Z,26.47
2017-09-26T10:13:21.820Z,24.80
2017-09-26T10:15:50.528Z,25.40
2017-09-26T10:18:18.676Z,25.60
2017-09-26T10:20:46.805Z,23.50
2017-09-26T10:23:16.221Z,24.80
2017-09-26T10:25:44.349Z,23.67
2017-09-26T10:28:12.476Z,24.60
2017-09-26T10:30:41.396Z,23.37
2017-09-26T10:33:09.512Z,24.67
2017-09-26T10:35:37.652Z,27.67
2017-09-26T10:38:05.789Z,25.77
2017-09-26T10:40:34.737Z,27.17
2017-09-26T10:43:02.897Z,22.80
2017-09-26T10:45:31.012Z,28.27
2017-09-26T10:47:59.933Z,25.60
2017-09-26T10:50:28.057Z,25.70
2017-09-26T10:52:56.318Z,25.60
2017-09-26T10:55:24.577Z,25.27
2017-09-26T10:57:53.688Z,26.23
2017-09-26T11:00:21.827Z,25.80
2017-09-26T11:02:50.767Z,24.70
2017-09-26T11:05:18.904Z,25.80
2017-09-26T11:07:47.060Z,28.60
2017-09-26T11:10:15.197Z,29.13
2017-09-26T11:12:44.108Z,27.40
2017-09-26T11:15:12.262Z,27.90
2017-09-26T11:17:41.158Z,29.70
2017-09-26T11:20:10.085Z,31.90
2017-09-26T11:22:38.224Z,28.00
2017-09-26T11:25:07.159Z,30.53
2017-09-26T11:27:35.286Z,32.57
2017-09-26T11:30:04.219Z,33.10
2017-09-26T11:32:32.373Z,33.00
2017-09-26T11:35:00.540Z,34.87
2017-09-26T11:37:28.712Z,34.20
2017-09-26T11:39:56.936Z,32.53
2017-09-26T11:42:25.100Z,38.10
2017-09-26T11:44:53.259Z,37.17
2017-09-26T11:47:21.418Z,31.73
2017-09-26T11:49:49.585Z,33.10
2017-09-26T11:52:17.727Z,31.67
2017-09-26T11:54:46.659Z,31.60
2017-09-26T11:57:14.820Z,30.30
2017-09-26T11:59:42.955Z,29.17
2017-09-26T12:02:11.864Z,30.73
2017-09-26T12:04:40.016Z,30.97
2017-09-26T12:07:09.383Z,29.20
2017-09-26T12:09:37.546Z,30.57
2017-09-26T12:12:05.669Z,28.57
2017-09-26T12:14:34.599Z,26.53
2017-09-26T12:17:02.740Z,22.90
2017-09-26T12:19:31.680Z,26.57
2017-09-26T12:21:59.843Z,25.83
2017-09-26T12:24:27.985Z,27.53
2017-09-26T12:26:56.121Z,26.30
2017-09-26T12:29:24.249Z,26.80
2017-09-26T12:31:52.392Z,26.80
2017-09-26T12:34:21.304Z,27.13
2017-09-26T12:36:49.446Z,28.43
2017-09-26T12:39:18.372Z,24.47
2017-09-26T12:41:47.270Z,24.97
2017-09-26T12:44:16.169Z,26.13
2017-09-26T12:46:44.316Z,27.37
2017-09-26T12:49:13.216Z,28.27
2017-09-26T12:51:41.385Z,25.60
2017-09-26T12:54:10.316Z,24.87
2017-09-26T12:56:39.232Z,24.87
2017-09-26T12:59:07.377Z,23.37
2017-09-26T13:01:35.545Z,24.70
2017-09-26T13:04:03.698Z,24.70
2017-09-26T13:06:31.842Z,23.93
2017-09-26T13:08:59.981Z,24.57
2017-09-26T13:11:28.133Z,24.60
2017-09-26T13:13:56.248Z,23.93
2017-09-26T13:16:24.434Z,22.83
2017-09-26T13:18:52.581Z,22.07
2017-09-26T13:21:20.712Z,20.90
2017-09-26T13:23:48.873Z,18.70
2017-09-26T13:26:17.039Z,19.03
2017-09-26T13:28:45.956Z,22.97
2017-09-26T13:31:14.085Z,20.77
2017-09-26T13:33:43.014Z,23.23
2017-09-26T13:36:11.174Z,22.87
2017-09-26T13:38:39.303Z,22.50
2017-09-26T13:41:07.468Z,20.23
2017-09-26T13:43:35.603Z,21.10
2017-09-26T13:46:03.749Z,23.23
2017-09-26T13:48:31.916Z,20.10
2017-09-26T13:51:00.048Z,22.10
2017-09-26T13:53:28.953Z,20.70
2017-09-26T13:55:57.092Z,19.87
2017-09-26T13:58:25.243Z,19.63
2017-09-26T14:00:53.404Z,21.00
2017-09-26T14:03:21.546Z,20.90
2017-09-26T14:05:50.463Z,22.00
2017-09-26T14:08:18.613Z,21.13
2017-09-26T14:10:46.752Z,20.80
2017-09-26T14:13:15.666Z,19.83
2017-09-26T14:15:43.800Z,20.90
2017-09-26T14:18:11.966Z,22.40
2017-09-26T14:20:40.113Z,23.50
2017-09-26T14:23:08.283Z,22.63
2017-09-26T14:25:36.438Z,21.37
2017-09-26T14:28:04.576Z,20.60
2017-09-26T14:30:32.721Z,19.97
2017-09-26T14:33:00.862Z,20.30
2017-09-26T14:35:29.042Z,19.13
2017-09-26T14:37:57.200Z,21.60
2017-09-26T14:40:25.349Z,21.27
2017-09-26T14:42:53.506Z,19.60
2017-09-26T14:45:22.404Z,20.40
2017-09-26T14:47:50.565Z,20.37
2017-09-26T14:50:19.494Z,21.47
2017-09-26T14:52:47.639Z,20.40
2017-09-26T14:55:15.793Z,19.90
2017-09-26T14:57:44.729Z,19.47
2017-09-26T15:00:12.894Z,18.53
2017-09-26T15:02:41.038Z,18.80
2017-09-26T15:05:09.944Z,19.97
2017-09-26T15:07:38.088Z,19.77
2017-09-26T15:10:07.022Z,20.10
2017-09-26T15:12:35.164Z,20.00
2017-09-26T15:15:04.068Z,16.60
2017-09-26T15:17:32.216Z,18.40
2017-09-26T15:20:01.131Z,19.55
2017-09-26T15:22:29.304Z,18.92
2017-09-26T15:24:58.217Z,17.07
2017-09-26T15:27:27.128Z,19.77
2017-09-26T15:29:55.265Z,18.83
2017-09-26T15:32:23.424Z,20.73
2017-09-26T15:34:51.568Z,15.65
2017-09-26T15:37:19.718Z,18.60
2017-09-26T15:39:47.856Z,18.45
2017-09-26T15:42:16.598Z,17.83
2017-09-26T15:44:45.500Z,15.55
2017-09-26T15:47:14.416Z,17.70
2017-09-26T15:49:42.602Z,19.20
2017-09-26T15:52:10.740Z,15.97
2017-09-26T15:54:39.688Z,16.57
2017-09-26T15:57:07.848Z,23.50
2017-09-26T15:59:35.992Z,21.20
2017-09-26T16:02:05.020Z,20.00
2017-09-26T16:04:33.175Z,22.07
2017-09-26T16:07:01.328Z,21.80
2017-09-26T16:09:29.508Z,21.03
2017-09-26T16:11:57.645Z,18.27
2017-09-26T16:14:25.802Z,18.80
2017-09-26T16:16:53.934Z,18.53
2017-09-26T16:19:22.844Z,17.73
2017-09-26T16:21:51.014Z,17.43
2017-09-26T16:24:19.865Z,19.30
2017-09-26T16:26:48.025Z,19.60
2017-09-26T16:29:16.167Z,16.63
2017-09-26T16:31:44.340Z,16.77
2017-09-26T16:34:12.455Z,15.80
2017-09-26T16:36:40.638Z,18.00
2017-09-26T16:39:08.780Z,16.50
2017-09-26T16:41:36.958Z,15.83
2017-09-26T16:44:05.109Z,17.27
2017-09-26T16:46:33.290Z,16.53
2017-09-26T16:49:01.485Z,15.80
2017-09-26T16:51:29.642Z,15.20
2017-09-26T16:53:58.607Z,16.33
2017-09-26T16:56:27.667Z,17.60
2017-09-26T16:58:57.358Z,16.67
2017-09-26T17:01:25.509Z,17.57
2017-09-26T17:03:53.666Z,17.07
2017-09-26T17:06:21.835Z,15.63
2017-09-26T17:08:50.030Z,15.40
2017-09-26T17:11:18.194Z,18.77
2017-09-26T17:13:46.363Z,16.60
2017-09-26T17:16:14.517Z,17.50
2017-09-26T17:18:42.677Z,15.53
2017-09-26T17:21:10.835Z,14.73
2017-09-26T17:23:39.762Z,15.20
2017-09-26T17:26:07.924Z,16.67
2017-09-26T17:28:36.131Z,17.27
2017-09-26T17:31:04.314Z,20.43
2017-09-26T17:33:32.482Z,16.73
2017-09-26T17:36:00.641Z,16.00
2017-09-26T17:38:28.889Z,17.23
2017-09-26T17:40:57.875Z,16.20
2017-09-26T17:43:26.043Z,16.10
2017-09-26T17:45:55.036Z,15.93
2017-09-26T17:48:23.931Z,13.77
2017-09-26T17:50:53.021Z,14.50
2017-09-26T17:53:21.954Z,14.90
2017-09-26T17:55:50.121Z,15.60
2017-09-26T17:58:18.274Z,16.27
2017-09-26T18:00:46.426Z,19.03
2017-09-26T18:03:15.338Z,16.70
2017-09-26T18:05:43.545Z,16.43
2017-09-26T18:08:11.667Z,15.70
2017-09-26T18:10:39.845Z,13.80
2017-09-26T18:13:07.983Z,15.23
2017-09-26T18:15:36.246Z,14.07
2017-09-26T18:18:04.373Z,12.57
2017-09-26T18:20:33.671Z,15.07
2017-09-26T18:23:02.565Z,14.50
2017-09-26T18:25:30.740Z,14.47
2017-09-26T18:27:58.902Z,15.70
2017-09-26T18:30:28.251Z,15.47
2017-09-26T18:32:56.458Z,13.63
2017-09-26T18:35:26.081Z,15.30
2017-09-26T18:37:55.067Z,14.47
2017-09-26T18:40:23.253Z,13.17
2017-09-26T18:42:51.437Z,14.70
2017-09-26T18:45:19.598Z,14.67
2017-09-26T18:47:47.777Z,13.17
2017-09-26T18:50:15.909Z,13.40
2017-09-26T18:52:44.878Z,13.30
2017-09-26T18:55:13.034Z,14.33
2017-09-26T18:57:41.271Z,14.30
2017-09-26T19:00:10.203Z,13.00
2017-09-26T19:02:38.387Z,15.20
2017-09-26T19:05:08.056Z,15.63
2017-09-26T19:07:36.251Z,14.23
2017-09-26T19:10:04.678Z,16.00
2017-09-26T19:12:33.042Z,17.53
2017-09-26T19:15:01.451Z,17.10
2017-09-26T19:17:30.379Z,17.30
2017-09-26T19:19:58.552Z,20.20
2017-09-26T19:22:26.681Z,19.53
2017-09-26T19:24:55.619Z,18.50
2017-09-26T19:27:23.798Z,17.43
2017-09-26T19:29:51.952Z,16.00
2017-09-26T19:32:20.117Z,15.60
2017-09-26T19:34:48.311Z,14.97
2017-09-26T19:37:17.141Z,15.07
2017-09-26T19:39:45.301Z,16.03
2017-09-26T19:42:13.465Z,14.80
2017-09-26T19:44:42.326Z,15.10
2017-09-26T19:47:12.069Z,13.30
2017-09-26T19:49:41.044Z,12.83
2017-09-26T19:52:09.167Z,13.97
2017-09-26T19:54:37.347Z,14.10
2017-09-26T19:57:05.524Z,14.30
2017-09-26T19:59:33.703Z,14.63
2017-09-26T20:02:02.624Z,13.67
2017-09-26T20:04:31.337Z,14.43
2017-09-26T20:07:00.236Z,16.50
2017-09-26T20:09:29.202Z,15.63
2017-09-26T20:11:57.325Z,15.40
2017-09-26T20:14:25.497Z,16.57
2017-09-26T20:16:53.682Z,16.67
2017-09-26T20:19:21.793Z,19.23
2017-09-26T20:21:49.968Z,17.57
2017-09-26T20:24:18.219Z,18.73
2017-09-26T20:26:46.355Z,16.57
2017-09-26T20:29:14.492Z,17.07
2017-09-26T20:31:42.668Z,17.63
2017-09-26T20:34:10.847Z,17.00
2017-09-26T20:36:38.989Z,18.40
2017-09-26T20:39:07.158Z,17.50
2017-09-26T20:41:35.319Z,17.97
2017-09-26T20:44:03.477Z,18.50
2017-09-26T20:46:32.424Z,18.03
2017-09-26T20:49:00.553Z,18.10
2017-09-26T20:51:28.709Z,17.50
2017-09-26T20:53:56.872Z,19.03
2017-09-26T20:56:25.038Z,17.33
2017-09-26T20:58:53.190Z,16.70
2017-09-26T21:01:22.101Z,18.40
2017-09-26T21:03:50.255Z,19.87
2017-09-26T21:06:18.406Z,15.90
2017-09-26T21:08:46.540Z,13.70
2017-09-26T21:11:14.689Z,13.70
2017-09-26T21:13:43.598Z,14.27
2017-09-26T21:16:11.741Z,16.67
2017-09-26T21:18:40.673Z,15.60
2017-09-26T21:21:08.808Z,16.27
2017-09-26T21:23:37.701Z,14.67
2017-09-26T21:26:06.634Z,14.37
2017-09-26T21:28:34.755Z,15.57
2017-09-26T21:31:02.917Z,16.87
2017-09-26T21:33:31.065Z,16.37
2017-09-26T21:35:59.209Z,17.37
2017-09-26T21:38:27.396Z,16.70
2017-09-26T21:40:55.651Z,16.00
2017-09-26T21:43:23.805Z,18.60
2017-09-26T21:45:51.960Z,15.13
2017-09-26T21:48:20.090Z,12.37
2017-09-26T21:50:49.007Z,13.17
2017-09-26T21:53:17.144Z,13.83
2017-09-26T21:55:45.278Z,16.50
2017-09-26T21:58:13.424Z,15.70
2017-09-26T22:00:41.598Z,15.70
2017-09-26T22:03:10.380Z,15.80
2017-09-26T22:05:38.609Z,15.87
2017-09-26T22:08:07.496Z,14.00
2017-09-26T22:10:35.644Z,11.80
2017-09-26T22:13:04.645Z,12.37
2017-09-26T22:15:32.800Z,11.93
2017-09-26T22:18:00.936Z,10.50
2017-09-26T22:20:29.061Z,10.80
2017-09-26T22:22:57.214Z,11.47
2017-09-26T22:25:25.356Z,13.43
2017-09-26T22:27:53.504Z,11.57
2017-09-26T22:30:21.647Z,12.83
2017-09-26T22:32:49.800Z,16.00
2017-09-26T22:35:17.936Z,16.30
2017-09-26T22:37:46.059Z,16.93
2017-09-26T22:40:14.208Z,14.37
2017-09-26T22:42:42.350Z,11.10
2017-09-26T22:45:11.256Z,13.07
2017-09-26T22:47:40.149Z,13.20
2017-09-26T22:50:08.302Z,12.40
2017-09-26T22:52:36.424Z,13.10
2017-09-26T22:55:04.585Z,13.73
2017-09-26T22:57:32.704Z,14.30
2017-09-26T23:00:01.676Z,12.30
2017-09-26T23:02:29.805Z,12.20
2017-09-26T23:04:57.956Z,12.80
2017-09-26T23:07:26.137Z,12.50
2017-09-26T23:09:54.272Z,12.53
2017-09-26T23:12:23.193Z,13.13
2017-09-26T23:14:52.001Z,12.90
2017-09-26T23:17:20.967Z,13.23
2017-09-26T23:19:49.653Z,14.00
2017-09-26T23:22:17.778Z,14.13
2017-09-26T23:24:45.928Z,12.50
2017-09-26T23:27:14.084Z,13.67
2017-09-26T23:29:42.223Z,13.30
2017-09-26T23:32:10.351Z,9.30
2017-09-26T23:34:40.039Z,9.23
2017-09-26T23:37:08.152Z,11.27
2017-09-26T23:39:36.299Z,10.97
2017-09-26T23:42:04.427Z,12.80
2017-09-26T23:44:32.557Z,11.10
2017-09-26T23:47:00.696Z,8.53
2017-09-26T23:49:28.835Z,9.70
2017-09-26T23:51:57.744Z,10.13
2017-09-26T23:54:25.868Z,11.60
2017-09-26T23:56:55.036Z,10.80
2017-09-26T23:59:23.169Z,14.07
